Kuala Lumpur International Airport
WMKK : now visible

Airfield :











YOU CAN JOIN US ON...

 
LOGIN :

Register | Disclaimer

   EN    FR    IT 

 









Legend :    VFR   Marginal VFR   IFR   Intensive IFR   Very Intensive IFR
Visi :
Ceiling :
>= 8 km
>= 3000ft
5 to 8 km
1000 to 3000 ft
1500m to 5 km
500 to 1000 ft
800 to 1500m
200 to 500 ft
< 800m
< 200 ft
Symbols :   Thunderstorms  Fog  Heavy snow  Heavy precipitations  Wind > 20 kt







- Airport Elevation : 69 ft
- IATA code : KUL


WMKK - Kuala Lumpur International

CURRENT METAR :
  • 261130Z VRB01KT 9999 FEW018 BKN290 28/25 Q1009 NOSIG

EXPIRED METARs :
  • 261100Z VRB02KT 9999 FEW018 BKN290 29/24 Q1009 NOSIG
  • 261030Z 15003KT 110V220 9999 FEW018 BKN290 29/23 Q1008 NOSIG
  • 261000Z 16003KT 100V230 9999 FEW018 SCT140 BKN280 30/23 Q1008 NOSIG
  • 260930Z 16004KT 110V210 9999 FEW017CB SCT140 BKN280 30/24 Q1008 NOSIG
  • 260900Z 16005KT 110V250 9999 FEW020 SCT140 BKN280 30/25 Q1008 NOSIG

TAF TAF WMKK
Valid from the 26 at 12:00 until the 27 at 18:00 UTC


261100Z 2612/2718 15005KT 9999 FEW030
TEMPO 2621/2701 30010G25KT 4000 TSRA FEW010 FEW017CB SCT018
BECMG 2701/2702 11006KT FEW020
BECMG 2706/2708 FEW017CB
WMFC FIR / Asia



MET'MAP, your aeronautical weather chart ! - Copyright ORBIFLY December 2007 - Disclaimer

ORBIFLY MET'MAP TEAM :

Programming & Development : Alexandra Zaïnal
Concept & Development : Baudouin d'Aumeries
Co-Development & Prog : Marc-Olivier Méhu
Technical & hardware support : Manuel Goepfert

Contact : metmap@orbifly.com




SOURCES & CREDITS :

   NOAA       Earth
Advisory